Time;durP1;ratioP1;P1;durP2;ratioP2;P2;SDS_P1;SDS_P2;PMS_P1;PMS_P2;Temp;Humidity;BMP_temperature;BMP_pressure;BME280_temperature;BME280_humidity;BME280_pressure;Samples;Min_cycle;Max_cycle;Signal;HPM_P1;HPM_P2
2021/01/12 00:02:18;;;;;;;0.10;0.00;;;;;;;7.15;100.00;98948.91;5031931;28;20052;-81
2021/01/12 00:05:22;;;;;;;0.00;0.00;;;;;;;7.20;100.00;98956.56;5028965;28;20052;-80
2021/01/12 00:08:25;;;;;;;0.10;0.00;;;;;;;7.18;100.00;98952.75;5030785;28;20056;-80
2021/01/12 00:11:29;;;;;;;0.00;0.00;;;;;;;7.17;100.00;98965.81;5018058;28;20049;-80
2021/01/12 00:14:33;;;;;;;0.08;0.00;;;;;;;7.15;100.00;98962.75;5031057;28;20870;-80
2021/01/12 00:17:36;;;;;;;0.10;0.10;;;;;;;7.16;100.00;98961.53;5030618;28;20418;-81
2021/01/12 00:20:40;;;;;;;0.00;0.00;;;;;;;7.14;100.00;98969.53;5030342;28;20505;-82
2021/01/12 00:23:43;;;;;;;0.10;0.00;;;;;;;7.10;100.00;98968.97;5018035;28;20060;-81
2021/01/12 00:26:47;;;;;;;0.00;0.00;;;;;;;6.95;100.00;98962.63;5030281;28;20052;-81
2021/01/12 00:29:51;;;;;;;0.00;0.00;;;;;;;6.79;100.00;98961.03;5017749;28;20056;-82
2021/01/12 00:32:56;;;;;;;0.10;0.00;;;;;;;6.66;100.00;98968.03;5016885;28;20052;-82
2021/01/12 00:36:06;;;;;;;0.10;0.00;;;;;;;6.55;100.00;98968.56;5010504;28;20049;-82
2021/01/12 00:39:09;;;;;;;0.00;0.00;;;;;;;6.47;100.00;98977.69;5009600;28;20399;-81
2021/01/12 00:42:13;;;;;;;0.10;0.10;;;;;;;6.41;100.00;98979.56;5010267;28;20053;-80
2021/01/12 00:45:17;;;;;;;0.10;0.10;;;;;;;6.35;100.00;98970.34;5010678;28;20046;-81
2021/01/12 00:48:20;;;;;;;0.10;0.10;;;;;;;6.29;100.00;98973.00;5008653;28;20053;-81
2021/01/12 00:51:37;;;;;;;0.10;0.10;;;;;;;6.24;100.00;98983.94;5010268;28;20061;-81
2021/01/12 00:54:40;;;;;;;0.10;0.10;;;;;;;6.21;100.00;98982.09;5010279;28;20049;-80
2021/01/12 00:57:44;;;;;;;0.10;0.10;;;;;;;6.18;100.00;98994.06;5009969;28;20419;-81
2021/01/12 01:00:47;;;;;;;0.10;0.00;;;;;;;6.13;100.00;98991.97;4998921;28;20056;-80
2021/01/12 01:03:50;;;;;;;0.00;0.00;;;;;;;6.11;100.00;98975.81;4996883;28;20157;-80
2021/01/12 01:06:54;;;;;;;0.10;0.10;;;;;;;6.10;100.00;98988.13;5009386;28;20414;-80
2021/01/12 01:09:58;;;;;;;0.10;0.00;;;;;;;6.08;100.00;98987.84;4997320;28;20053;-79
2021/01/12 01:13:01;;;;;;;0.10;0.00;;;;;;;6.06;100.00;98991.03;4997467;28;21181;-80
2021/01/12 01:16:05;;;;;;;0.00;0.00;;;;;;;6.04;100.00;98984.47;5009564;28;20057;-81
2021/01/12 01:19:09;;;;;;;0.10;0.00;;;;;;;6.05;100.00;98992.28;4997323;28;20053;-80
2021/01/12 01:22:12;;;;;;;0.00;0.00;;;;;;;6.03;100.00;98989.22;5009169;28;20061;-80
2021/01/12 01:25:16;;;;;;;0.10;0.03;;;;;;;6.02;100.00;98987.69;4996929;28;20077;-80
2021/01/12 01:28:21;;;;;;;0.10;0.10;;;;;;;6.03;100.00;98994.75;5007800;28;20978;-80
2021/01/12 01:31:24;;;;;;;0.10;0.00;;;;;;;6.02;100.00;98995.97;5010242;28;20056;-81
2021/01/12 01:34:27;;;;;;;0.10;0.00;;;;;;;6.02;100.00;99007.03;5028422;28;20053;-79
2021/01/12 01:37:35;;;;;;;0.10;0.10;;;;;;;6.01;100.00;98999.22;5028996;28;20513;-80
2021/01/12 01:40:38;;;;;;;0.10;0.10;;;;;;;6.00;100.00;98994.91;5028765;28;20044;-81
2021/01/12 01:43:42;;;;;;;0.10;0.00;;;;;;;5.99;100.00;98994.16;5028772;28;20524;-81
2021/01/12 01:46:46;;;;;;;0.10;0.00;;;;;;;5.95;100.00;98990.03;5028537;28;20048;-80
2021/01/12 01:49:49;;;;;;;0.10;0.00;;;;;;;5.93;100.00;98990.47;5028569;28;20048;-80
2021/01/12 01:52:56;;;;;;;0.10;0.08;;;;;;;5.95;100.00;98996.31;5028721;28;20064;-80
2021/01/12 01:56:03;;;;;;;0.00;0.00;;;;;;;5.95;100.00;98990.78;5028175;28;20159;-80
2021/01/12 01:59:07;;;;;;;0.10;0.00;;;;;;;5.93;100.00;98990.47;5028549;28;20405;-79
2021/01/12 02:02:11;;;;;;;0.10;0.10;;;;;;;5.94;100.00;98996.78;5029655;28;20347;-80
2021/01/12 02:05:16;;;;;;;0.00;0.00;;;;;;;5.92;100.00;98996.47;5028293;28;20681;-80
2021/01/12 02:08:29;;;;;;;0.00;0.00;;;;;;;5.94;100.00;99005.06;5014566;28;20739;-80
2021/01/12 02:11:41;;;;;;;0.10;0.00;;;;;;;5.93;100.00;99009.06;5028698;28;20057;-80
2021/01/12 02:14:46;;;;;;;0.10;0.00;;;;;;;5.94;100.00;98997.53;5027996;28;20663;-79
2021/01/12 02:17:51;;;;;;;0.10;0.00;;;;;;;5.93;100.00;98996.00;5027076;28;20244;-81
2021/01/12 02:20:54;;;;;;;0.05;0.00;;;;;;;5.91;100.00;99003.97;5027279;28;20072;-80
2021/01/12 02:23:59;;;;;;;0.10;0.00;;;;;;;5.91;100.00;98998.47;5027952;28;20052;-80
2021/01/12 02:27:05;;;;;;;0.10;0.10;;;;;;;5.93;100.00;99006.31;5027679;28;20057;-79
2021/01/12 02:30:09;;;;;;;0.10;0.00;;;;;;;5.93;100.00;99000.78;5015260;28;20060;-79
2021/01/12 02:33:12;;;;;;;0.10;0.00;;;;;;;5.95;100.00;99009.38;5012446;28;20104;-80
2021/01/12 02:36:21;;;;;;;0.10;0.00;;;;;;;5.94;100.00;99014.13;4995613;28;20060;-79
2021/01/12 02:39:25;;;;;;;0.10;0.00;;;;;;;5.95;100.00;99010.13;5008242;28;20056;-80
2021/01/12 02:42:28;;;;;;;0.10;0.10;;;;;;;5.94;100.00;99022.41;5008486;28;20053;-80
2021/01/12 02:45:32;;;;;;;0.10;0.00;;;;;;;5.95;100.00;99015.66;5008279;28;20057;-80
2021/01/12 02:48:36;;;;;;;0.03;0.00;;;;;;;5.95;100.00;99012.91;5007983;28;20057;-80
2021/01/12 02:51:40;;;;;;;0.10;0.00;;;;;;;5.94;100.00;99016.88;5008151;28;20053;-80
2021/01/12 02:54:43;;;;;;;0.10;0.10;;;;;;;5.92;100.00;99022.09;5007477;28;20140;-81
2021/01/12 02:57:47;;;;;;;0.10;0.10;;;;;;;5.93;100.00;99026.38;4995045;28;20049;-80
2021/01/12 03:00:50;;;;;;;0.10;0.10;;;;;;;5.91;100.00;99026.09;5008640;28;20522;-80
2021/01/12 03:03:54;;;;;;;0.10;0.00;;;;;;;5.91;100.00;99034.38;5007594;28;20072;-80
2021/01/12 03:06:57;;;;;;;0.10;0.10;;;;;;;5.91;100.00;99028.84;5007390;28;20057;-80
2021/01/12 03:10:02;;;;;;;0.10;0.00;;;;;;;5.92;100.00;99043.44;4995145;28;20052;-82
2021/01/12 03:13:06;;;;;;;0.05;0.00;;;;;;;5.92;100.00;99044.22;4994477;28;20068;-81
2021/01/12 03:16:09;;;;;;;0.00;0.00;;;;;;;5.92;100.00;99055.25;4994059;28;20057;-80
2021/01/12 03:19:13;;;;;;;0.10;0.00;;;;;;;5.94;100.00;99055.56;5007326;28;20735;-81
2021/01/12 03:22:16;;;;;;;0.00;0.00;;;;;;;5.91;100.00;99059.25;5007342;28;20069;-80
2021/01/12 03:25:20;;;;;;;0.10;0.00;;;;;;;5.90;100.00;99059.72;5005978;28;20779;-80
2021/01/12 03:28:24;;;;;;;0.00;0.00;;;;;;;5.88;100.00;99056.66;5014218;28;20414;-81
2021/01/12 03:31:27;;;;;;;0.10;0.10;;;;;;;5.87;100.00;99058.66;5015019;28;20049;-81
2021/01/12 03:34:30;;;;;;;0.10;0.10;;;;;;;5.85;100.00;99055.56;5034115;28;20048;-80
2021/01/12 03:37:34;;;;;;;0.10;0.10;;;;;;;5.84;100.00;99065.09;5034278;28;20053;-80
2021/01/12 03:40:38;;;;;;;0.10;0.10;;;;;;;5.82;100.00;99064.78;5021197;28;20053;-80
2021/01/12 03:43:41;;;;;;;0.10;0.10;;;;;;;5.81;100.00;99068.75;5033892;28;20064;-80
2021/01/12 03:46:45;;;;;;;0.08;0.00;;;;;;;5.81;100.00;99068.75;5034064;28;20417;-80
2021/01/12 03:49:48;;;;;;;0.00;0.00;;;;;;;5.84;100.00;99073.41;5033597;28;20065;-80
2021/01/12 03:52:55;;;;;;;0.10;0.00;;;;;;;5.83;100.00;99069.06;5021186;28;20432;-79
2021/01/12 03:55:58;;;;;;;0.10;0.00;;;;;;;5.84;100.00;99070.63;5032835;28;20185;-81
2021/01/12 03:59:02;;;;;;;0.10;0.10;;;;;;;5.85;100.00;99072.16;5033175;28;20052;-80
2021/01/12 04:02:05;;;;;;;0.10;0.10;;;;;;;5.85;100.00;99052.81;5034880;28;20068;-80
2021/01/12 04:05:09;;;;;;;0.10;0.10;;;;;;;5.86;100.00;99073.69;5033443;28;20747;-80
2021/01/12 04:08:12;;;;;;;0.10;0.00;;;;;;;5.86;100.00;99081.22;5033244;28;20049;-80
2021/01/12 04:11:18;;;;;;;0.10;0.00;;;;;;;5.86;100.00;99076.47;5033181;28;20057;-80
2021/01/12 04:14:22;;;;;;;0.10;0.10;;;;;;;5.84;100.00;99069.88;5031709;28;20052;-80
2021/01/12 04:17:25;;;;;;;0.10;0.00;;;;;;;5.84;100.00;99065.09;5033515;28;20409;-80
2021/01/12 04:20:29;;;;;;;0.10;0.00;;;;;;;5.84;100.00;99081.69;5021315;28;20056;-80
2021/01/12 04:23:32;;;;;;;0.03;0.00;;;;;;;5.83;100.00;99091.16;5033697;28;20425;-80
2021/01/12 04:26:36;;;;;;;0.10;0.00;;;;;;;5.85;100.00;99088.72;5033007;28;20517;-81
2021/01/12 04:29:39;;;;;;;0.10;0.00;;;;;;;5.84;100.00;99083.69;5032964;28;20052;-81
2021/01/12 04:32:43;;;;;;;0.10;0.00;;;;;;;5.86;100.00;99098.56;5020891;28;20052;-80
2021/01/12 04:35:46;;;;;;;0.10;0.10;;;;;;;5.84;100.00;99098.25;5012511;28;20818;-82
2021/01/12 04:38:50;;;;;;;0.10;0.10;;;;;;;5.84;100.00;99101.03;4997855;28;20064;-81
2021/01/12 04:41:53;;;;;;;0.03;0.00;;;;;;;5.83;100.00;99099.44;5010294;28;20195;-81
2021/01/12 04:44:57;;;;;;;0.10;0.10;;;;;;;5.84;100.00;99098.25;4998010;28;20057;-80
2021/01/12 04:48:00;;;;;;;0.10;0.10;;;;;;;5.86;100.00;99100.56;5010314;28;20052;-81
2021/01/12 04:51:08;;;;;;;0.10;0.00;;;;;;;5.88;100.00;99103.63;4998045;28;20429;-80
2021/01/12 04:54:11;;;;;;;0.10;0.10;;;;;;;5.89;100.00;99100.38;5010208;28;20069;-81
2021/01/12 04:57:15;;;;;;;0.10;0.10;;;;;;;5.90;100.00;99104.69;5010099;28;20053;-80
2021/01/12 05:00:29;;;;;;;0.00;0.00;;;;;;;5.90;100.00;99101.16;5009766;28;20065;-80
2021/01/12 05:03:32;;;;;;;0.00;0.00;;;;;;;5.91;100.00;99114.50;5010371;28;20064;-80
2021/01/12 05:06:38;;;;;;;0.10;0.00;;;;;;;5.91;100.00;99120.03;5010331;28;20061;-80
2021/01/12 05:09:43;;;;;;;0.00;0.00;;;;;;;5.90;100.00;99112.22;5010185;28;20049;-80
2021/01/12 05:12:46;;;;;;;0.10;0.00;;;;;;;5.87;100.00;99111.13;5009617;28;20076;-80
2021/01/12 05:15:52;;;;;;;0.00;0.00;;;;;;;5.91;100.00;99124.81;4997284;28;20045;-80
2021/01/12 05:18:58;;;;;;;0.10;0.00;;;;;;;5.88;100.00;99123.75;4997567;28;20069;-80
2021/01/12 05:22:04;;;;;;;0.10;0.00;;;;;;;5.91;100.00;99130.34;5009497;28;20045;-80
2021/01/12 05:25:19;;;;;;;0.00;0.00;;;;;;;5.90;100.00;99140.63;4997204;28;20060;-80
2021/01/12 05:28:23;;;;;;;0.10;0.10;;;;;;;5.89;100.00;99139.06;5007241;28;20056;-80
2021/01/12 05:31:27;;;;;;;0.10;0.00;;;;;;;5.89;100.00;99150.13;5010596;28;20060;-81
2021/01/12 05:34:35;;;;;;;0.10;0.00;;;;;;;5.87;100.00;99152.59;5029410;28;20406;-80
2021/01/12 05:37:41;;;;;;;0.10;0.00;;;;;;;5.87;100.00;99160.88;5029338;28;20101;-80
2021/01/12 05:40:44;;;;;;;0.03;0.00;;;;;;;5.85;100.00;99155.03;5005193;28;20048;-81
2021/01/12 05:43:48;;;;;;;0.10;0.00;;;;;;;5.85;100.00;99160.56;5008932;28;20045;-81
2021/01/12 05:46:53;;;;;;;0.03;0.00;;;;;;;5.84;100.00;99156.28;5008933;28;20053;-81
2021/01/12 05:49:58;;;;;;;0.10;0.00;;;;;;;5.81;100.00;99165.44;4996766;28;20054;-81
2021/01/12 05:53:21;;;;;;;0.10;0.00;;;;;;;5.82;100.00;99171.75;4997007;28;20065;-80
2021/01/12 05:56:27;;;;;;;0.10;0.00;;;;;;;5.81;100.00;99170.97;5007212;28;20822;-80
2021/01/12 05:59:37;;;;;;;0.10;0.10;;;;;;;5.78;100.00;99177.41;5008984;28;20418;-79
2021/01/12 06:02:44;;;;;;;0.10;0.10;;;;;;;5.79;100.00;99189.25;5010468;28;20052;-80
2021/01/12 06:05:49;;;;;;;0.10;0.00;;;;;;;5.77;100.00;99191.69;5008194;28;20651;-81
2021/01/12 06:08:53;;;;;;;0.10;0.00;;;;;;;5.73;100.00;99197.38;5008115;28;20642;-80
2021/01/12 06:11:57;;;;;;;0.10;0.00;;;;;;;5.68;100.00;99195.22;5008274;28;20744;-80
2021/01/12 06:15:03;;;;;;;0.10;0.00;;;;;;;5.66;100.00;99208.72;5008466;28;20053;-81
2021/01/12 06:18:11;;;;;;;0.00;0.00;;;;;;;5.65;100.00;99214.72;5008145;28;20683;-80
2021/01/12 06:21:17;;;;;;;0.10;0.00;;;;;;;5.59;100.00;99220.06;5007848;28;20057;-80
2021/01/12 06:24:40;;;;;;;0.10;0.10;;;;;;;5.54;100.00;99219.91;4994566;28;20052;-79
2021/01/12 06:27:44;;;;;;;0.10;0.10;;;;;;;5.52;100.00;99225.88;5008172;28;20053;-81
2021/01/12 06:30:48;;;;;;;0.10;0.00;;;;;;;5.50;100.00;99222.03;5008291;28;20427;-81
2021/01/12 06:33:56;;;;;;;0.10;0.00;;;;;;;5.50;100.00;99228.31;4968966;28;20054;-80
2021/01/12 06:37:03;;;;;;;0.10;0.00;;;;;;;5.49;100.00;99226.78;4969886;28;20054;-81
2021/01/12 06:40:10;;;;;;;0.10;0.10;;;;;;;5.49;100.00;99231.53;4962725;28;20422;-80
2021/01/12 06:43:14;;;;;;;0.10;0.00;;;;;;;5.48;100.00;99241.06;4986341;28;20084;-80
2021/01/12 06:46:18;;;;;;;0.10;0.00;;;;;;;5.46;100.00;99249.78;4973399;28;20410;-81
2021/01/12 06:49:23;;;;;;;0.10;0.10;;;;;;;5.48;100.00;99246.59;4998420;28;20053;-80
2021/01/12 06:52:27;;;;;;;0.10;0.08;;;;;;;5.46;100.00;99265.59;4997462;28;20065;-81
2021/01/12 06:55:30;;;;;;;0.10;0.10;;;;;;;5.47;100.00;99262.38;5000463;28;20521;-81
2021/01/12 06:58:34;;;;;;;0.10;0.10;;;;;;;5.47;100.00;99273.41;5008009;28;20061;-81
2021/01/12 07:01:38;;;;;;;0.10;0.10;;;;;;;5.48;100.00;99274.19;5009576;28;20066;-80
2021/01/12 07:04:57;;;;;;;0.08;0.08;;;;;;;5.44;100.00;99282.59;5008276;28;20053;-81
2021/01/12 07:08:08;;;;;;;0.10;0.00;;;;;;;5.44;100.00;99285.38;5007758;28;20061;-80
2021/01/12 07:11:13;;;;;;;0.10;0.10;;;;;;;5.43;100.00;99283.84;5007905;28;20073;-81
2021/01/12 07:14:25;;;;;;;0.10;0.10;;;;;;;5.42;100.00;99290.56;4998277;28;20391;-80
2021/01/12 07:17:30;;;;;;;0.10;0.00;;;;;;;5.37;100.00;99302.97;5002358;28;20062;-80
2021/01/12 07:20:40;;;;;;;0.10;0.10;;;;;;;5.37;100.00;99307.75;5008315;28;20418;-80
2021/01/12 07:23:44;;;;;;;0.00;0.00;;;;;;;5.36;100.00;99306.19;5006256;28;20049;-81
2021/01/12 07:26:47;;;;;;;0.10;0.00;;;;;;;5.35;100.00;99310.94;4997097;28;20053;-81
2021/01/12 07:29:55;;;;;;;0.10;0.10;;;;;;;5.33;100.00;99320.91;5005311;28;20057;-79
2021/01/12 07:33:02;;;;;;;0.10;0.10;;;;;;;5.27;100.00;99320.72;5006451;28;20061;-80
2021/01/12 07:36:07;;;;;;;0.10;0.00;;;;;;;5.18;100.00;99325.41;5006707;28;20410;-80
2021/01/12 07:39:11;;;;;;;0.10;0.10;;;;;;;5.12;100.00;99330.00;5006770;28;20053;-80
2021/01/12 07:42:16;;;;;;;0.10;0.00;;;;;;;5.09;100.00;99344.72;5007171;28;20049;-82
2021/01/12 07:45:22;;;;;;;0.10;0.10;;;;;;;5.04;100.00;99348.03;5004125;28;20056;-81
2021/01/12 07:48:26;;;;;;;0.10;0.00;;;;;;;5.02;100.00;99356.00;4991995;28;20057;-80
2021/01/12 07:51:31;;;;;;;0.10;0.10;;;;;;;4.99;100.00;99362.41;5003695;28;20053;-82
2021/01/12 07:54:35;;;;;;;0.10;0.10;;;;;;;4.94;100.00;99369.28;4994825;28;20057;-82
2021/01/12 07:57:39;;;;;;;0.10;0.10;;;;;;;4.93;100.00;99378.78;5007034;28;20049;-82
2021/01/12 08:00:43;;;;;;;0.10;0.10;;;;;;;4.94;100.00;99387.81;5007726;28;20056;-82
2021/01/12 08:03:47;;;;;;;0.10;0.08;;;;;;;4.92;100.00;99393.78;5006781;28;20101;-80
2021/01/12 08:06:50;;;;;;;0.10;0.10;;;;;;;4.89;100.00;99393.91;4994542;28;20061;-80
2021/01/12 08:09:58;;;;;;;0.10;0.10;;;;;;;4.87;100.00;99401.88;4994881;28;20498;-81
2021/01/12 08:13:12;;;;;;;0.10;0.10;;;;;;;4.87;100.00;99407.41;5006925;28;20052;-80
2021/01/12 08:16:17;;;;;;;0.10;0.10;;;;;;;4.83;100.00;99410.25;5010591;28;20441;-80
2021/01/12 08:19:21;;;;;;;0.10;0.10;;;;;;;4.81;100.00;99418.22;5008708;28;20410;-81
2021/01/12 08:22:27;;;;;;;0.10;0.10;;;;;;;4.80;100.00;99418.66;5010172;28;20052;-80
2021/01/12 08:25:33;;;;;;;0.10;0.10;;;;;;;4.80;100.00;99424.19;5010908;28;20418;-80
2021/01/12 08:28:37;;;;;;;0.10;0.10;;;;;;;4.81;100.00;99436.78;5010755;28;20066;-80
2021/01/12 08:31:47;;;;;;;0.10;0.10;;;;;;;4.79;100.00;99439.19;5015116;28;20045;-79
2021/01/12 08:35:00;;;;;;;0.10;0.00;;;;;;;4.76;100.00;99446.38;5010581;28;20053;-79
2021/01/12 08:38:07;;;;;;;0.10;0.10;;;;;;;4.75;100.00;99455.09;5004043;28;20052;-80
2021/01/12 08:41:11;;;;;;;0.10;0.10;;;;;;;4.70;100.00;99467.44;4977538;28;20601;-81
2021/01/12 08:44:17;;;;;;;0.10;0.10;;;;;;;4.66;100.00;99474.31;4999098;28;20057;-82
2021/01/12 08:47:27;;;;;;;0.10;0.00;;;;;;;4.63;100.00;99482.25;4989161;28;21049;-81
2021/01/12 08:50:30;;;;;;;0.10;0.00;;;;;;;4.63;100.00;99493.28;4990676;28;20049;-80
2021/01/12 08:53:35;;;;;;;0.10;0.00;;;;;;;4.58;100.00;99499.38;4991137;28;20065;-80
2021/01/12 08:56:38;;;;;;;0.10;0.00;;;;;;;4.43;100.00;99509.31;5005792;28;20053;-81
2021/01/12 08:59:42;;;;;;;0.10;0.00;;;;;;;4.27;100.00;99503.91;5009972;28;20418;-79
2021/01/12 09:02:47;;;;;;;0.10;0.00;;;;;;;4.13;100.00;99526.41;5011063;28;20049;-80
2021/01/12 09:05:53;;;;;;;0.10;0.10;;;;;;;4.03;100.00;99532.25;4998331;28;20042;-79
2021/01/12 09:09:07;;;;;;;0.10;0.10;;;;;;;3.94;100.00;99546.66;5009399;28;20081;-78
2021/01/12 09:12:11;;;;;;;0.10;0.10;;;;;;;3.91;100.00;99553.03;5009349;28;20176;-78
2021/01/12 09:15:15;;;;;;;0.10;0.10;;;;;;;3.90;100.00;99554.22;5008961;28;20107;-79
2021/01/12 09:18:20;;;;;;;0.10;0.10;;;;;;;3.90;100.00;99562.50;5008042;28;20532;-80
2021/01/12 09:21:23;;;;;;;0.10;0.10;;;;;;;3.89;100.00;99571.97;5009397;28;20057;-80
2021/01/12 09:24:27;;;;;;;0.10;0.10;;;;;;;3.88;100.00;99570.44;5009210;28;20064;-80
2021/01/12 09:27:30;;;;;;;0.10;0.10;;;;;;;3.79;100.00;99573.03;5009010;28;20053;-81
2021/01/12 09:30:34;;;;;;;0.10;0.10;;;;;;;3.68;100.00;99578.84;4997472;28;20057;-80
2021/01/12 09:33:39;;;;;;;0.10;0.10;;;;;;;3.62;100.00;99585.31;5008943;28;20418;-81
2021/01/12 09:36:43;;;;;;;0.08;0.00;;;;;;;3.58;100.00;99592.91;5009290;28;20057;-80
2021/01/12 09:39:56;;;;;;;0.10;0.00;;;;;;;3.52;100.00;99597.41;5010934;28;20077;-81
2021/01/12 09:43:00;;;;;;;0.10;0.00;;;;;;;3.52;100.00;99605.66;5028844;28;20052;-81
2021/01/12 09:46:04;;;;;;;0.10;0.00;;;;;;;3.51;100.00;99617.91;5028615;28;20052;-81
2021/01/12 09:49:07;;;;;;;0.10;0.10;;;;;;;3.58;100.00;99625.94;5016664;28;20057;-81
2021/01/12 09:52:11;;;;;;;0.10;0.10;;;;;;;3.68;100.00;99627.66;5028639;28;20723;-81
2021/01/12 09:55:14;;;;;;;0.10;0.00;;;;;;;3.73;100.00;99640.88;5028694;28;20056;-81
2021/01/12 09:58:17;;;;;;;0.10;0.10;;;;;;;3.75;100.00;99653.00;5026122;28;20053;-83
2021/01/12 10:01:21;;;;;;;0.10;0.10;;;;;;;3.74;100.00;99659.75;5003372;28;20053;-82
2021/01/12 10:04:25;;;;;;;0.10;0.10;;;;;;;3.72;100.00;99667.66;4999083;28;20053;-82
2021/01/12 10:07:29;;;;;;;0.10;0.10;;;;;;;3.65;100.00;99667.06;4987550;28;20045;-82
2021/01/12 10:10:33;;;;;;;0.10;0.10;;;;;;;3.54;100.00;99677.56;4999545;28;20126;-82
2021/01/12 10:13:37;;;;;;;0.10;0.10;;;;;;;3.37;100.00;99678.81;4987872;28;20068;-83
2021/01/12 10:16:41;;;;;;;0.10;0.10;;;;;;;3.17;100.00;99684.41;4988184;28;20049;-82
2021/01/12 10:19:45;;;;;;;0.10;0.10;;;;;;;3.05;100.00;99690.59;4999514;28;20049;-80
2021/01/12 10:22:48;;;;;;;0.10;0.10;;;;;;;2.93;100.00;99700.28;4996170;28;20541;-82
2021/01/12 10:25:51;;;;;;;0.10;0.10;;;;;;;2.82;100.00;99693.47;4998340;28;20056;-82
2021/01/12 10:28:55;;;;;;;0.10;0.10;;;;;;;2.71;100.00;99701.16;4990074;28;20518;-83
2021/01/12 10:31:58;;;;;;;0.10;0.10;;;;;;;2.60;100.00;99709.66;4997351;28;20406;-83
2021/01/12 10:35:03;;;;;;;0.10;0.10;;;;;;;2.49;100.00;99722.84;5015957;28;20065;-81
2021/01/12 10:38:06;;;;;;;0.10;0.10;;;;;;;2.41;100.00;99721.44;5027948;28;20053;-81
2021/01/12 10:41:11;;;;;;;0.20;0.20;;;;;;;2.30;100.00;99724.41;5013654;28;20060;-81
2021/01/12 10:44:15;;;;;;;0.10;0.10;;;;;;;2.23;100.00;99734.78;4996770;28;20060;-82
2021/01/12 10:47:18;;;;;;;0.22;0.22;;;;;;;2.13;100.00;99741.22;4994577;28;20698;-81
2021/01/12 10:50:22;;;;;;;0.10;0.10;;;;;;;2.09;100.00;99746.00;5008069;28;20053;-84
2021/01/12 10:53:25;;;;;;;0.10;0.10;;;;;;;2.02;100.00;99740.66;4995442;28;20057;-83
2021/01/12 10:56:29;;;;;;;0.10;0.10;;;;;;;1.95;100.00;99751.78;5008288;28;20053;-81
2021/01/12 10:59:32;;;;;;;0.20;0.20;;;;;;;1.86;100.00;99749.59;5008492;28;20057;-81
2021/01/12 11:02:36;;;;;;;0.15;0.15;;;;;;;1.79;100.00;99768.13;5009376;28;20053;-81
2021/01/12 11:05:39;;;;;;;0.20;0.20;;;;;;;1.70;100.00;99745.94;4995937;28;20048;-80
2021/01/12 11:08:43;;;;;;;0.20;0.20;;;;;;;1.60;100.00;99749.63;5007690;28;20057;-81
2021/01/12 11:11:51;;;;;;;0.17;0.17;;;;;;;1.51;100.00;99750.97;4995487;28;20057;-81
2021/01/12 11:14:55;;;;;;;0.10;0.10;;;;;;;1.41;100.00;99757.38;5007811;28;20049;-80
2021/01/12 11:17:59;;;;;;;0.30;0.30;;;;;;;1.35;100.00;99750.81;5007940;28;20414;-80
2021/01/12 11:21:02;;;;;;;0.20;0.20;;;;;;;1.30;100.00;99762.25;4995148;28;20398;-80
2021/01/12 11:24:06;;;;;;;0.20;0.20;;;;;;;1.27;100.00;99768.56;5006745;28;20479;-81
2021/01/12 11:27:09;;;;;;;0.20;0.20;;;;;;;1.27;100.00;99774.06;5007403;28;20053;-81
2021/01/12 11:30:13;;;;;;;0.20;0.20;;;;;;;1.30;100.00;99772.47;5008354;28;20069;-83
2021/01/12 11:33:17;;;;;;;0.10;0.10;;;;;;;1.30;100.00;99775.22;4998418;28;20691;-83
2021/01/12 11:36:20;;;;;;;0.13;0.13;;;;;;;1.32;100.00;99776.31;4995638;28;20052;-82
2021/01/12 11:39:23;;;;;;;0.10;0.10;;;;;;;1.36;100.00;99784.50;5007959;28;20114;-83
2021/01/12 11:42:27;;;;;;;0.20;0.20;;;;;;;1.35;100.00;99781.00;5027731;28;20064;-82
2021/01/12 11:45:30;;;;;;;0.10;0.10;;;;;;;1.39;100.00;99778.97;5027134;28;20113;-83
2021/01/12 11:48:34;;;;;;;0.20;0.20;;;;;;;1.39;100.00;99776.22;5029172;28;20048;-83
2021/01/12 11:51:42;;;;;;;0.20;0.20;;;;;;;1.44;100.00;99773.00;5031809;28;20417;-82
2021/01/12 11:54:45;;;;;;;0.10;0.10;;;;;;;1.46;100.00;99775.34;5030954;28;20053;-83
2021/01/12 11:57:49;;;;;;;0.20;0.20;;;;;;;1.65;100.00;99771.88;5021491;28;20060;-84
2021/01/12 12:00:52;;;;;;;0.20;0.20;;;;;;;1.70;100.00;99789.84;5020513;28;20049;-81
2021/01/12 12:03:56;;;;;;;0.17;0.17;;;;;;;1.72;100.00;99788.25;5030794;28;20056;-81
2021/01/12 12:07:02;;;;;;;0.10;0.10;;;;;;;1.72;100.00;99796.47;5030107;28;20068;-83
2021/01/12 12:10:06;;;;;;;0.10;0.10;;;;;;;1.72;100.00;99788.25;5030971;28;20405;-81
2021/01/12 12:13:10;;;;;;;0.10;0.10;;;;;;;1.78;100.00;99785.78;5030564;28;20057;-81
2021/01/12 12:16:14;;;;;;;0.20;0.20;;;;;;;1.80;100.00;99783.44;5030503;28;20603;-83
2021/01/12 12:19:18;;;;;;;0.20;0.20;;;;;;;1.79;100.00;99798.31;5030214;28;20139;-81
2021/01/12 12:22:21;;;;;;;0.20;0.20;;;;;;;1.78;100.00;99796.75;5019951;28;20057;-83
2021/01/12 12:25:25;;;;;;;0.10;0.10;;;;;;;1.75;100.00;99809.38;5030787;28;20056;-82
2021/01/12 12:28:29;;;;;;;0.10;0.10;;;;;;;1.75;100.00;99811.34;5030430;28;20052;-82
2021/01/12 12:31:32;;;;;;;0.20;0.20;;;;;;;1.76;100.00;99816.41;5028398;28;20513;-81
2021/01/12 12:34:36;;;;;;;0.10;0.10;;;;;;;1.82;100.00;99819.47;5010739;28;20049;-82
2021/01/12 12:37:40;;;;;;;0.10;0.10;;;;;;;1.83;100.00;99821.00;5010256;28;20061;-82
2021/01/12 12:40:44;;;;;;;0.10;0.10;;;;;;;1.79;100.00;99831.28;5009469;28;20402;-83
2021/01/12 12:43:47;;;;;;;0.15;0.15;;;;;;;1.80;100.00;99830.09;5010525;28;20069;-84
2021/01/12 12:46:51;;;;;;;0.17;0.17;;;;;;;1.76;100.00;99837.59;4997547;28;20056;-85
2021/01/12 12:49:55;;;;;;;0.10;0.10;;;;;;;1.78;100.00;99848.91;4998227;28;20076;-82
2021/01/12 12:52:59;;;;;;;0.13;0.13;;;;;;;1.85;100.00;99843.31;5009503;28;20053;-81
2021/01/12 12:56:03;;;;;;;0.10;0.10;;;;;;;1.88;100.00;99850.75;4998065;28;20758;-84
2021/01/12 12:59:07;;;;;;;0.10;0.10;;;;;;;1.93;100.00;99853.78;4997326;28;20611;-76
2021/01/12 13:02:10;;;;;;;0.10;0.10;;;;;;;1.93;100.00;99853.78;5009192;28;20060;-81
2021/01/12 13:05:14;;;;;;;0.10;0.10;;;;;;;2.01;100.00;99859.94;5009927;28;20049;-77
2021/01/12 13:08:18;;;;;;;0.10;0.10;;;;;;;2.05;100.00;99860.66;5009296;28;20053;-79
2021/01/12 13:11:22;;;;;;;0.10;0.10;;;;;;;1.92;100.00;99856.94;4998095;28;20053;-77
2021/01/12 13:14:26;;;;;;;0.10;0.10;;;;;;;1.89;100.00;99868.75;5010582;28;20053;-78
2021/01/12 13:17:41;;;;;;;0.10;0.10;;;;;;;1.83;100.00;99862.19;5010487;28;20410;-79
2021/01/12 13:20:44;;;;;;;0.20;0.20;;;;;;;1.86;100.00;99866.84;4999227;28;20061;-78
2021/01/12 13:23:48;;;;;;;0.10;0.10;;;;;;;1.90;100.00;99878.56;5010297;28;20069;-78
2021/01/12 13:26:54;;;;;;;0.20;0.20;;;;;;;1.98;100.00;99880.00;5008742;28;20073;-79
2021/01/12 13:29:57;;;;;;;0.10;0.10;;;;;;;2.11;100.00;99873.50;5009690;28;20053;-77
2021/01/12 13:33:01;;;;;;;0.10;0.10;;;;;;;2.15;100.00;99881.66;4993755;28;20053;-78
2021/01/12 13:36:04;;;;;;;0.10;0.10;;;;;;;2.12;100.00;99877.03;4989687;28;20486;-78
2021/01/12 13:39:09;;;;;;;0.15;0.15;;;;;;;2.06;100.00;99879.44;4989785;28;20405;-78
2021/01/12 13:42:13;;;;;;;0.10;0.10;;;;;;;2.01;100.00;99881.91;4989738;28;20049;-77
2021/01/12 13:45:17;;;;;;;0.10;0.10;;;;;;;1.96;100.00;99879.63;4989983;28;20415;-77
2021/01/12 13:48:21;;;;;;;0.20;0.20;;;;;;;1.97;100.00;99875.69;4988446;28;20743;-78
2021/01/12 13:51:25;;;;;;;0.10;0.10;;;;;;;1.99;100.00;99881.56;4990176;28;20118;-77
2021/01/12 13:54:31;;;;;;;0.20;0.20;;;;;;;1.98;100.00;99888.22;4990021;28;20415;-77
2021/01/12 13:57:36;;;;;;;0.10;0.10;;;;;;;1.94;100.00;99882.00;4989936;28;20438;-75
2021/01/12 14:00:40;;;;;;;0.10;0.10;;;;;;;1.94;100.00;99891.03;4978086;28;20050;-77
2021/01/12 14:03:44;;;;;;;0.20;0.20;;;;;;;1.91;100.00;99894.59;4989836;28;20513;-77
2021/01/12 14:06:48;;;;;;;0.20;0.20;;;;;;;1.88;100.00;99905.66;4976829;28;20061;-77
2021/01/12 14:09:53;;;;;;;0.10;0.10;;;;;;;1.87;100.00;99901.34;4988729;28;20739;-77
2021/01/12 14:12:56;;;;;;;0.20;0.20;;;;;;;1.83;100.00;99903.38;4988185;28;20069;-77
2021/01/12 14:16:00;;;;;;;0.20;0.20;;;;;;;1.80;100.00;99909.69;4976355;28;20050;-77
2021/01/12 14:19:06;;;;;;;0.20;0.20;;;;;;;1.76;100.00;99911.69;4988985;28;20477;-77
2021/01/12 14:22:12;;;;;;;0.10;0.10;;;;;;;1.71;100.00;99912.19;4976455;28;20053;-77
2021/01/12 14:25:16;;;;;;;0.10;0.10;;;;;;;1.73;100.00;99918.81;4988773;28;20721;-77
2021/01/12 14:28:21;;;;;;;0.10;0.08;;;;;;;1.73;100.00;99923.53;4987206;28;20136;-79
2021/01/12 14:31:25;;;;;;;0.20;0.20;;;;;;;1.70;100.00;99922.38;4977216;28;20057;-77